No data was retrieved for https://query.yahooapis.com/v1/public/yql?q=select+%2A+from+weather.forecast+where+woeid%3D860853&format=xml&u=c

Flood From: 26-04-2019 23:00 Until: 27-04-2019 22:59 warning for: Flood Level: Orange info button
Rain From: 26-04-2019 23:00 Until: 27-04-2019 22:59 warning for: Rain Level: Yellow info button
Forest fire From: 26-04-2019 23:00 Until: 27-04-2019 22:59 warning for: Forest fire Level: Yellow info button


warning for Rain more information rain snow radar


Visit our other weather sites:

Template documentation
and downloads

And another site



Nearby METAR Reports

   
EBAW - Antwerp
Updated: 26-04-2019 18:20
Partly Cloudy  
Partly Cloudy  
   Wind: WSW 4.6 m/s
Wind: WSW 4.6 m/s
Temperature: 17°C
Dew Point: 3°C
Humidity: 39%
Barometer: 1013 hPa
Clouds: Partly Cloudy
Visibility: More than 10 km
Cloud details: Partly Cloudy 4900 ft
EBAW 261620Z 24009KT 200V270 9999 SCT049 17/03 Q1013 NOSIG
EBLG - Liège
Updated: 26-04-2019 18:20
Few Clouds  
Few Clouds  
   Wind: SW 3.6 m/s
Wind: SW 3.6 m/s
Temperature: 16°C
Dew Point: 4°C
Humidity: 45%
Barometer: 1014 hPa
Clouds: Few Clouds
Visibility: More than 10 km
Cloud details: Few Clouds 4700 ft
EBLG 261620Z 23007KT 9999 FEW047 16/04 Q1014 NOSIG
EBCV - Mons/Bergen
Updated: 26-04-2019 18:25
Overcast  
Overcast  
   Wind: SSW 6.7 m/s
Wind: SSW 6.7 m/s
Temperature: 16°C
Dew Point: 4°C
Humidity: 45%
Barometer: 1014 hPa
Clouds: Overcast
Visibility: More than 10 km
Cloud details: Overcast 8600 ft
EBCV 261625Z AUTO 20013KT 9999 OVC086/// 16/04 Q1014 BLU
EHBK - Maastricht
Updated: 26-04-2019 18:25
Partly Cloudy  
Partly Cloudy  
   Wind: West 2.1 m/s
Wind: West 2.1 m/s
Temperature: 16°C
Dew Point: 6°C
Humidity: 52%
Barometer: 1014 hPa
Clouds: Partly Cloudy
Visibility: More than 10 km
Cloud details: Partly Cloudy
EHBK 261625Z AUTO 26004KT 210V320 9999 NSC 16/06 Q1014 NOSIG
ELLX - Luxemburg
Updated: 26-04-2019 18:20
Few Clouds  
Few Clouds  
   Wind: SW 3.6 m/s
Wind: SW 3.6 m/s
Temperature: 15°C
Dew Point: 4°C
Humidity: 48%
Barometer: 1015 hPa
Clouds: Few Clouds
Visibility: More than 10 km
Cloud details: Few Clouds 4700 ft
ELLX 261620Z 23007KT 190V280 9999 FEW047 15/04 Q1015 NOSIG
EBOS - Oostende
Updated: 26-04-2019 18:20
Few Clouds  
Few Clouds  
   Wind: SSW 6.2 m/s
Wind: SSW 6.2 m/s
Temperature: 14°C
Dew Point: 7°C
Humidity: 63%
Barometer: 1013 hPa
Clouds: Few Clouds
Visibility: More than 10 km
Cloud details: Few Clouds 2500 ft
EBOS 261620Z 21012KT 9999 FEW025TCU 14/07 Q1013 NOSIG

Script developed by  Saratoga-weather.org Adapted for the template by  Weerstation Leuven

You find our weather info also at:

Weather Underground

Equipment we use:

Weather-station
Davis Vantage Vue

Weather-program
WeatherCat

Provider
one.com

Davis Vantage Vue

WeatherCat

one.com